Time;durP1;ratioP1;P1;durP2;ratioP2;P2;SDS_P1;SDS_P2;PMS_P1;PMS_P2;Temp;Humidity;BMP_temperature;BMP_pressure;BME280_temperature;BME280_humidity;BME280_pressure;Samples;Min_cycle;Max_cycle;Signal;HPM_P1;HPM_P2
2022/07/20 00:00:42;;;;;;;4.88;3.35;;;23.60;72.70;;;;;;5055007;28;20045;-77
2022/07/20 00:03:12;;;;;;;4.53;3.58;;;23.60;72.60;;;;;;5040937;28;20048;-77
2022/07/20 00:05:39;;;;;;;4.15;3.20;;;23.60;72.50;;;;;;5045703;28;20488;-78
2022/07/20 00:08:05;;;;;;;6.15;3.40;;;23.60;72.60;;;;;;5050398;28;20095;-78
2022/07/20 00:13:15;;;;;;;5.97;3.50;;;23.50;72.70;;;;;;5057494;28;20059;-78
2022/07/20 00:15:41;;;;;;;7.38;4.00;;;23.40;72.70;;;;;;5036691;28;20128;-78
2022/07/20 00:18:07;;;;;;;7.63;3.60;;;23.40;72.50;;;;;;5059605;28;20041;-78
2022/07/20 00:20:35;;;;;;;8.30;3.88;;;23.40;72.30;;;;;;5048532;28;20040;-78
2022/07/20 00:23:01;;;;;;;5.00;3.45;;;23.40;72.30;;;;;;5044758;28;20068;-78
2022/07/20 00:25:27;;;;;;;4.82;3.50;;;23.40;72.20;;;;;;5043862;28;20045;-78
2022/07/20 00:27:53;;;;;;;5.53;3.33;;;23.30;72.00;;;;;;5043200;28;20091;-77
2022/07/20 00:30:19;;;;;;;8.80;4.10;;;23.30;71.90;;;;;;5052153;28;20095;-78
2022/07/20 00:32:45;;;;;;;5.07;3.50;;;23.30;71.70;;;;;;5047273;28;20033;-78
2022/07/20 00:35:12;;;;;;;5.72;3.53;;;23.20;71.50;;;;;;5032297;28;20564;-78
2022/07/20 00:37:40;;;;;;;5.72;3.60;;;23.20;71.30;;;;;;5043074;28;20436;-78
2022/07/20 00:40:07;;;;;;;5.70;3.70;;;23.20;71.50;;;;;;5039010;28;20029;-78
2022/07/20 00:42:37;;;;;;;6.50;3.40;;;23.20;71.50;;;;;;5045848;28;20034;-78
2022/07/20 00:45:04;;;;;;;5.57;3.65;;;23.20;71.60;;;;;;5025906;28;20033;-78
2022/07/20 00:47:30;;;;;;;5.97;3.95;;;23.10;71.70;;;;;;5032592;28;20068;-78
2022/07/20 00:49:55;;;;;;;6.95;3.70;;;23.10;71.90;;;;;;5052142;28;20032;-78
2022/07/20 00:52:21;;;;;;;5.85;3.65;;;23.10;72.10;;;;;;5052041;28;20108;-78
2022/07/20 00:54:48;;;;;;;5.60;3.50;;;23.00;72.00;;;;;;5045264;28;20064;-78
2022/07/20 00:57:15;;;;;;;9.55;3.88;;;23.00;72.10;;;;;;5047494;28;20036;-78
2022/07/20 00:59:41;;;;;;;9.55;3.50;;;23.00;72.10;;;;;;5033007;28;20048;-78
2022/07/20 01:02:07;;;;;;;6.03;3.45;;;23.00;72.10;;;;;;5066841;28;20036;-78
2022/07/20 01:04:33;;;;;;;8.15;3.90;;;22.90;72.10;;;;;;5047349;28;20707;-78
2022/07/20 01:06:59;;;;;;;7.18;3.67;;;22.90;72.20;;;;;;5050873;28;20048;-78
2022/07/20 01:09:25;;;;;;;6.65;3.83;;;22.90;72.20;;;;;;5043876;28;20041;-78
2022/07/20 01:11:50;;;;;;;7.63;3.42;;;22.90;72.40;;;;;;5047303;28;20041;-78
2022/07/20 01:14:16;;;;;;;4.93;3.80;;;22.80;72.30;;;;;;5045159;28;20048;-78
2022/07/20 01:16:42;;;;;;;5.40;3.58;;;22.80;72.30;;;;;;5041516;28;20041;-77
2022/07/20 01:19:08;;;;;;;6.95;3.95;;;22.80;72.40;;;;;;5042728;28;20488;-78
2022/07/20 01:21:40;;;;;;;8.98;3.85;;;22.70;72.30;;;;;;5045696;28;20032;-78
2022/07/20 01:24:10;;;;;;;10.80;3.95;;;22.70;72.40;;;;;;5044943;28;20409;-78
2022/07/20 01:26:40;;;;;;;7.25;3.92;;;22.70;72.30;;;;;;5063847;28;20128;-78
2022/07/20 01:29:07;;;;;;;9.50;3.55;;;22.70;72.30;;;;;;5047566;28;20352;-78
2022/07/20 01:31:33;;;;;;;5.68;3.70;;;22.60;72.10;;;;;;5047189;28;20045;-78
2022/07/20 01:34:00;;;;;;;6.38;3.60;;;22.60;72.20;;;;;;5028895;28;20040;-78
2022/07/20 01:36:26;;;;;;;7.95;3.70;;;22.60;72.20;;;;;;5048610;28;20098;-78
2022/07/20 01:38:52;;;;;;;4.57;3.47;;;22.60;72.20;;;;;;5050432;28;20048;-78
2022/07/20 01:41:17;;;;;;;6.55;3.70;;;22.60;72.30;;;;;;5049693;28;20045;-78
2022/07/20 01:43:43;;;;;;;9.68;3.58;;;22.60;72.30;;;;;;5040403;28;20482;-78
2022/07/20 01:46:09;;;;;;;7.38;4.05;;;22.50;72.80;;;;;;5020765;28;20044;-78
2022/07/20 01:48:35;;;;;;;6.45;3.65;;;22.50;72.40;;;;;;5037434;28;20037;-78
2022/07/20 01:51:00;;;;;;;7.25;3.90;;;22.50;72.50;;;;;;5046215;28;20052;-79
2022/07/20 01:53:26;;;;;;;6.68;3.95;;;22.40;72.50;;;;;;5043816;28;20041;-78
2022/07/20 01:55:52;;;;;;;6.63;4.20;;;22.40;73.10;;;;;;5040790;28;20503;-78
2022/07/20 01:58:18;;;;;;;7.40;4.13;;;22.40;72.40;;;;;;5049182;28;20041;-78
2022/07/20 02:00:44;;;;;;;4.10;3.50;;;22.40;72.50;;;;;;5049180;28;20043;-78
2022/07/20 02:03:09;;;;;;;5.15;3.50;;;22.40;72.40;;;;;;5051667;28;20045;-78
2022/07/20 02:05:35;;;;;;;5.28;3.70;;;22.40;72.40;;;;;;5040317;28;20071;-78
2022/07/20 02:08:01;;;;;;;5.45;3.72;;;22.40;72.40;;;;;;5035946;28;20080;-78
2022/07/20 02:10:27;;;;;;;6.65;4.03;;;22.30;72.40;;;;;;5054257;28;20032;-78
2022/07/20 02:12:52;;;;;;;9.65;4.10;;;22.30;72.50;;;;;;5054845;28;20047;-78
2022/07/20 02:18:07;;;;;;;7.85;4.03;;;22.20;72.60;;;;;;5045289;28;20047;-78
2022/07/20 02:20:34;;;;;;;6.90;4.22;;;22.20;72.70;;;;;;5041537;28;20037;-78
2022/07/20 02:23:02;;;;;;;9.05;4.15;;;22.20;72.90;;;;;;5032698;28;20041;-78
2022/07/20 02:25:28;;;;;;;10.32;4.13;;;22.20;73.10;;;;;;5044914;28;20069;-78
2022/07/20 02:27:53;;;;;;;7.18;4.13;;;22.20;73.10;;;;;;5041479;28;20072;-78
2022/07/20 02:30:19;;;;;;;5.95;4.07;;;22.20;73.10;;;;;;5049851;28;20035;-77
2022/07/20 02:32:45;;;;;;;6.22;4.30;;;22.10;73.10;;;;;;5033655;28;20029;-77
2022/07/20 02:35:22;;;;;;;5.55;3.90;;;22.10;73.30;;;;;;5044271;28;20036;-79
2022/07/20 02:37:48;;;;;;;5.60;4.05;;;22.00;73.60;;;;;;5039927;28;20033;-78
2022/07/20 02:40:13;;;;;;;5.25;3.78;;;22.00;73.80;;;;;;5044270;28;20118;-78
2022/07/20 02:42:39;;;;;;;8.82;4.30;;;22.00;74.20;;;;;;5032050;28;20032;-78
2022/07/20 02:45:05;;;;;;;5.13;3.72;;;22.00;74.30;;;;;;5042535;28;20481;-78
2022/07/20 02:47:31;;;;;;;5.25;4.00;;;21.90;74.40;;;;;;5035653;28;20037;-78
2022/07/20 02:49:57;;;;;;;6.45;4.00;;;21.90;74.80;;;;;;5067574;28;20037;-78
2022/07/20 02:52:22;;;;;;;6.55;4.00;;;21.80;74.80;;;;;;5050552;28;20500;-78
2022/07/20 02:54:49;;;;;;;7.97;4.60;;;21.80;75.00;;;;;;5061989;28;20041;-78
2022/07/20 02:57:14;;;;;;;8.27;4.20;;;21.80;75.00;;;;;;5040819;28;20040;-78
2022/07/20 02:59:40;;;;;;;7.30;4.35;;;21.80;75.00;;;;;;5046588;28;20041;-78
2022/07/20 03:02:10;;;;;;;9.55;4.75;;;21.70;75.10;;;;;;5061231;28;20028;-78
2022/07/20 03:04:36;;;;;;;6.10;4.00;;;21.70;75.30;;;;;;5044575;28;20128;-78
2022/07/20 03:07:01;;;;;;;5.05;3.65;;;21.70;75.60;;;;;;5058283;28;20059;-78
2022/07/20 03:09:27;;;;;;;7.72;3.90;;;21.70;75.80;;;;;;5047256;28;20052;-79
2022/07/20 03:11:53;;;;;;;7.07;3.90;;;21.60;76.10;;;;;;5049639;28;20036;-78
2022/07/20 03:14:20;;;;;;;8.15;4.38;;;21.60;76.90;;;;;;5047325;28;20040;-78
2022/07/20 03:16:48;;;;;;;6.43;4.00;;;21.60;76.70;;;;;;5042495;28;20045;-78
2022/07/20 03:19:17;;;;;;;10.18;4.25;;;21.50;76.80;;;;;;5044618;28;20040;-78
2022/07/20 03:21:48;;;;;;;6.88;4.20;;;21.50;77.00;;;;;;5056743;28;20509;-78
2022/07/20 03:24:14;;;;;;;8.40;4.40;;;21.50;77.10;;;;;;5055729;28;20535;-78
2022/07/20 03:26:40;;;;;;;9.25;4.30;;;21.50;77.00;;;;;;5047702;28;20076;-78
2022/07/20 03:29:05;;;;;;;9.52;4.68;;;21.50;77.30;;;;;;5043002;28;20040;-78
2022/07/20 03:31:31;;;;;;;9.60;4.35;;;21.40;77.50;;;;;;5056299;28;20033;-78
2022/07/20 03:33:57;;;;;;;6.82;4.35;;;21.40;77.70;;;;;;5049102;28;20037;-78
2022/07/20 03:36:24;;;;;;;5.85;4.05;;;21.40;77.80;;;;;;5054718;28;20424;-78
2022/07/20 03:38:51;;;;;;;8.40;4.25;;;21.40;77.90;;;;;;5053817;28;20059;-78
2022/07/20 03:41:20;;;;;;;7.20;4.47;;;21.30;77.90;;;;;;5056126;28;20496;-78
2022/07/20 03:43:46;;;;;;;7.18;3.95;;;21.30;77.70;;;;;;5053616;28;20041;-78
2022/07/20 03:46:11;;;;;;;9.32;4.25;;;21.30;77.70;;;;;;5054427;28;20094;-79
2022/07/20 03:48:37;;;;;;;8.82;4.35;;;21.30;77.70;;;;;;5050202;28;20037;-79
2022/07/20 03:51:04;;;;;;;8.43;4.60;;;21.30;77.70;;;;;;5036384;28;20496;-79
2022/07/20 03:53:29;;;;;;;7.22;4.40;;;21.20;77.50;;;;;;5069194;28;20124;-79
2022/07/20 03:55:55;;;;;;;6.72;3.90;;;21.20;77.50;;;;;;5057861;28;20448;-78
2022/07/20 03:58:20;;;;;;;9.50;4.35;;;21.20;77.60;;;;;;5049512;28;20048;-78
2022/07/20 04:00:46;;;;;;;6.30;4.13;;;21.20;77.70;;;;;;5058188;28;20519;-79
2022/07/20 04:03:12;;;;;;;7.80;4.43;;;21.20;78.00;;;;;;5043234;28;20137;-79
2022/07/20 04:05:38;;;;;;;7.55;4.60;;;21.20;78.20;;;;;;5046447;28;20045;-78
2022/07/20 04:08:04;;;;;;;5.88;4.38;;;21.20;78.20;;;;;;5063790;28;20635;-78
2022/07/20 04:10:29;;;;;;;6.97;4.43;;;21.20;78.10;;;;;;5050645;28;20029;-78
2022/07/20 04:12:55;;;;;;;7.18;4.75;;;21.10;78.20;;;;;;5042607;28;20105;-78
2022/07/20 04:15:21;;;;;;;9.60;4.53;;;21.10;78.40;;;;;;5043200;28;20494;-76
2022/07/20 04:17:47;;;;;;;8.73;4.53;;;21.10;78.50;;;;;;5037102;28;20049;-77
2022/07/20 04:20:12;;;;;;;7.43;4.53;;;21.10;78.60;;;;;;5040538;28;20045;-78
2022/07/20 04:22:38;;;;;;;14.73;5.63;;;21.10;78.80;;;;;;5043886;28;20029;-79
2022/07/20 04:25:04;;;;;;;7.70;4.35;;;21.10;79.10;;;;;;5044630;28;20115;-78
2022/07/20 04:27:30;;;;;;;11.23;4.60;;;21.10;79.30;;;;;;5035296;28;20051;-78
2022/07/20 04:29:56;;;;;;;5.82;4.50;;;21.10;79.30;;;;;;5034069;28;20033;-78
2022/07/20 04:32:22;;;;;;;8.23;4.40;;;21.00;79.30;;;;;;5035336;28;20120;-78
2022/07/20 04:34:48;;;;;;;10.45;4.90;;;21.10;79.50;;;;;;5060771;28;20709;-78
2022/07/20 04:37:13;;;;;;;6.53;5.20;;;21.00;79.70;;;;;;5043060;28;20044;-80
2022/07/20 04:39:39;;;;;;;7.85;4.75;;;21.10;79.80;;;;;;5054237;28;20033;-76
2022/07/20 04:42:05;;;;;;;8.68;4.43;;;21.00;80.10;;;;;;5046254;28;20029;-78
2022/07/20 04:44:38;;;;;;;8.55;4.97;;;21.00;80.30;;;;;;5048417;28;20037;-78
2022/07/20 04:47:03;;;;;;;6.70;4.93;;;21.00;80.70;;;;;;5038911;28;20049;-77
2022/07/20 04:49:29;;;;;;;6.78;4.32;;;21.00;80.80;;;;;;5050418;28;20040;-78
2022/07/20 04:51:55;;;;;;;6.60;4.53;;;21.00;81.30;;;;;;5041633;28;20076;-77
2022/07/20 04:54:22;;;;;;;10.75;4.75;;;20.90;81.70;;;;;;5046237;28;20033;-77
2022/07/20 04:56:48;;;;;;;8.48;4.43;;;20.90;82.10;;;;;;5047167;28;20063;-77
2022/07/20 04:59:17;;;;;;;9.00;4.82;;;20.90;82.30;;;;;;5048344;28;20115;-77
2022/07/20 05:01:43;;;;;;;9.05;4.82;;;20.90;83.00;;;;;;5032561;28;20175;-78
2022/07/20 05:04:08;;;;;;;6.57;4.60;;;20.90;82.40;;;;;;5045155;28;20116;-77
2022/07/20 05:06:34;;;;;;;9.05;4.68;;;20.90;82.40;;;;;;5045077;28;20120;-77
2022/07/20 05:09:00;;;;;;;9.23;4.78;;;20.90;82.50;;;;;;5042311;28;20029;-77
2022/07/20 05:11:26;;;;;;;5.30;4.38;;;20.90;83.00;;;;;;5049064;28;20033;-77
2022/07/20 05:13:53;;;;;;;6.20;4.57;;;21.00;83.20;;;;;;5051103;28;20127;-77
2022/07/20 05:16:18;;;;;;;11.18;4.47;;;21.00;83.30;;;;;;5042344;28;20060;-77
2022/07/20 05:18:45;;;;;;;12.00;5.22;;;21.00;83.20;;;;;;5047860;28;20040;-77
2022/07/20 05:21:11;;;;;;;9.73;4.93;;;21.00;83.10;;;;;;5033088;28;20086;-77
2022/07/20 05:23:36;;;;;;;7.93;5.10;;;21.00;82.80;;;;;;5046421;28;20045;-76
2022/07/20 05:26:03;;;;;;;8.48;4.95;;;21.00;82.10;;;;;;5032317;28;20029;-76
2022/07/20 05:28:29;;;;;;;9.50;5.10;;;21.00;81.80;;;;;;5043672;28;20069;-76
2022/07/20 05:30:55;;;;;;;9.07;4.65;;;21.00;81.50;;;;;;5044492;28;20114;-76
2022/07/20 05:33:24;;;;;;;9.85;4.60;;;21.10;81.30;;;;;;5024955;28;20116;-76
2022/07/20 05:35:50;;;;;;;9.75;5.10;;;21.10;81.60;;;;;;5039471;28;20124;-77
2022/07/20 05:38:17;;;;;;;9.70;4.82;;;21.10;82.00;;;;;;5040689;28;20046;-76
2022/07/20 05:40:42;;;;;;;7.15;4.57;;;21.10;82.10;;;;;;5042672;28;20037;-76
2022/07/20 05:43:08;;;;;;;8.27;4.03;;;21.20;82.10;;;;;;5035512;28;20099;-76
2022/07/20 05:45:34;;;;;;;14.23;5.30;;;21.10;81.90;;;;;;5034283;28;20454;-76
2022/07/20 05:48:00;;;;;;;8.52;5.00;;;21.20;81.90;;;;;;5041081;28;20046;-76
2022/07/20 05:50:26;;;;;;;11.25;5.18;;;21.30;81.30;;;;;;5035663;28;20111;-76
2022/07/20 05:52:52;;;;;;;11.68;5.15;;;21.40;81.20;;;;;;5038308;28;20052;-76
2022/07/20 05:55:18;;;;;;;5.78;5.13;;;21.40;81.40;;;;;;5040739;28;20037;-76
2022/07/20 05:57:44;;;;;;;8.63;5.13;;;21.50;81.40;;;;;;5046130;28;20060;-77
2022/07/20 06:00:10;;;;;;;10.05;5.50;;;21.60;81.10;;;;;;5037680;28;20069;-76
2022/07/20 06:02:36;;;;;;;11.65;5.45;;;21.70;80.90;;;;;;5050492;28;20030;-76
2022/07/20 06:05:05;;;;;;;12.13;5.60;;;21.70;80.40;;;;;;5047750;28;20052;-77
2022/07/20 06:07:30;;;;;;;8.02;5.28;;;21.80;80.00;;;;;;5048876;28;20034;-77
2022/07/20 06:09:56;;;;;;;10.07;5.45;;;21.80;79.50;;;;;;5045643;28;20456;-76
2022/07/20 06:12:21;;;;;;;7.93;4.93;;;21.90;79.40;;;;;;5038710;28;20033;-76
2022/07/20 06:14:48;;;;;;;7.90;5.45;;;22.00;79.20;;;;;;5047288;28;20045;-76
2022/07/20 06:17:14;;;;;;;8.18;5.25;;;22.00;79.00;;;;;;5032842;28;20239;-76
2022/07/20 06:19:40;;;;;;;7.40;5.72;;;22.10;78.90;;;;;;5039444;28;20562;-76
2022/07/20 06:22:07;;;;;;;6.82;5.22;;;22.10;78.90;;;;;;5041078;28;20040;-75
2022/07/20 06:24:34;;;;;;;8.40;5.43;;;22.30;79.00;;;;;;5022106;28;20105;-76
2022/07/20 06:26:59;;;;;;;8.15;5.13;;;22.50;78.90;;;;;;5041581;28;20037;-76
2022/07/20 06:29:25;;;;;;;9.23;6.05;;;22.40;78.70;;;;;;5042252;28;20042;-76
2022/07/20 06:31:52;;;;;;;7.65;5.90;;;22.50;78.30;;;;;;5038540;28;20037;-77
2022/07/20 06:34:18;;;;;;;10.48;5.55;;;22.60;78.10;;;;;;5027538;28;20044;-76
2022/07/20 06:36:46;;;;;;;10.75;6.00;;;22.70;78.00;;;;;;5042767;28;20037;-76
2022/07/20 06:39:12;;;;;;;26.10;7.88;;;22.70;78.00;;;;;;5032215;28;20041;-76
2022/07/20 06:41:37;;;;;;;15.80;7.20;;;22.80;78.00;;;;;;5042134;28;20045;-76
2022/07/20 06:44:03;;;;;;;13.98;6.90;;;22.80;77.90;;;;;;5033612;28;20551;-76
2022/07/20 06:46:29;;;;;;;10.85;6.70;;;22.90;78.00;;;;;;5019026;28;20120;-76
2022/07/20 06:48:55;;;;;;;10.90;6.45;;;23.00;78.00;;;;;;5037630;28;20038;-75
2022/07/20 06:51:20;;;;;;;15.35;6.80;;;23.00;78.20;;;;;;5045534;28;20048;-76
2022/07/20 06:53:46;;;;;;;10.77;6.55;;;23.10;78.70;;;;;;5037704;28;20045;-77
2022/07/20 06:56:11;;;;;;;10.10;6.82;;;23.20;79.20;;;;;;5044203;28;20084;-74
2022/07/20 06:58:40;;;;;;;11.30;7.93;;;23.20;79.40;;;;;;5038909;28;20029;-78
2022/07/20 07:01:06;;;;;;;13.18;8.32;;;23.30;79.70;;;;;;5029920;28;20507;-75
2022/07/20 07:03:32;;;;;;;15.68;8.05;;;23.40;79.70;;;;;;5043959;28;20041;-77
2022/07/20 07:05:57;;;;;;;14.85;9.52;;;23.50;79.70;;;;;;5046064;28;20041;-77
2022/07/20 07:08:23;;;;;;;15.15;10.30;;;23.60;80.50;;;;;;5041658;28;20033;-76
2022/07/20 07:10:52;;;;;;;17.58;10.75;;;23.70;81.00;;;;;;5030467;28;20040;-77
2022/07/20 07:13:18;;;;;;;19.60;11.10;;;23.70;81.40;;;;;;5044658;28;20751;-79
2022/07/20 07:15:44;;;;;;;16.27;10.95;;;23.80;82.00;;;;;;5026507;28;20041;-76
2022/07/20 07:18:12;;;;;;;18.60;11.95;;;23.90;82.50;;;;;;5034432;28;20041;-77
2022/07/20 07:20:38;;;;;;;21.35;12.00;;;24.00;83.10;;;;;;5041271;28;20029;-77
2022/07/20 07:23:05;;;;;;;17.50;12.48;;;24.00;83.20;;;;;;5057051;28;20416;-76
2022/07/20 07:25:30;;;;;;;19.15;11.98;;;24.10;83.70;;;;;;5049274;28;20037;-79
2022/07/20 07:27:56;;;;;;;21.77;13.50;;;24.10;83.80;;;;;;5054322;28;20040;-76
2022/07/20 07:30:22;;;;;;;21.02;13.80;;;24.20;84.70;;;;;;5016480;28;20093;-77
2022/07/20 07:32:49;;;;;;;19.17;13.20;;;24.30;85.40;;;;;;5041991;28;20034;-77
2022/07/20 07:35:24;;;;;;;20.48;14.50;;;24.40;85.60;;;;;;5041789;28;20071;-77
2022/07/20 07:37:50;;;;;;;20.65;15.50;;;24.40;86.00;;;;;;5022776;28;20072;-78
2022/07/20 07:40:15;;;;;;;18.73;14.07;;;24.50;86.70;;;;;;5034063;28;20528;-77
2022/07/20 07:42:42;;;;;;;21.02;15.50;;;24.50;86.80;;;;;;5043549;28;20119;-77
2022/07/20 07:45:09;;;;;;;26.38;15.88;;;24.50;87.10;;;;;;5023799;28;20049;-77
2022/07/20 07:47:35;;;;;;;21.67;17.05;;;24.60;87.60;;;;;;5066756;28;20504;-78
2022/07/20 07:50:01;;;;;;;27.17;16.73;;;24.60;88.10;;;;;;5024384;28;20033;-77
2022/07/20 07:52:26;;;;;;;25.75;17.98;;;24.60;88.80;;;;;;5030071;28;20136;-77
2022/07/20 07:54:52;;;;;;;28.45;17.75;;;24.70;90.10;;;;;;5048622;28;20477;-77
2022/07/20 07:57:19;;;;;;;27.30;17.73;;;24.80;90.30;;;;;;5051002;28;20109;-77
2022/07/20 07:59:46;;;;;;;27.27;19.73;;;24.90;90.80;;;;;;5021891;28;20038;-79
2022/07/20 08:02:12;;;;;;;24.80;18.42;;;24.90;91.10;;;;;;5033554;28;20042;-77
2022/07/20 08:04:38;;;;;;;28.60;18.98;;;24.90;91.10;;;;;;5046786;28;20048;-77
2022/07/20 08:07:03;;;;;;;25.33;18.45;;;25.00;91.40;;;;;;5021225;28;20121;-78
2022/07/20 08:09:29;;;;;;;27.13;18.58;;;25.10;91.50;;;;;;5031656;28;20702;-78
2022/07/20 08:11:55;;;;;;;30.67;20.67;;;25.10;91.50;;;;;;5054971;28;20052;-78
2022/07/20 08:14:21;;;;;;;35.45;19.23;;;25.10;91.50;;;;;;5046947;28;20041;-78
2022/07/20 08:16:48;;;;;;;25.92;19.75;;;25.10;91.60;;;;;;5032133;28;20095;-79
2022/07/20 08:19:18;;;;;;;35.03;20.88;;;25.20;91.80;;;;;;5034297;28;20365;-78
2022/07/20 08:21:43;;;;;;;31.38;21.65;;;25.30;92.20;;;;;;5036792;28;20469;-77
2022/07/20 08:24:09;;;;;;;26.33;20.33;;;25.30;91.90;;;;;;5035989;28;20044;-78
2022/07/20 08:26:35;;;;;;;29.23;20.60;;;25.40;92.00;;;;;;5026397;28;20514;-76
2022/07/20 08:29:01;;;;;;;31.25;21.17;;;25.50;91.90;;;;;;5028364;28;20405;-78
2022/07/20 08:31:27;;;;;;;29.45;21.05;;;25.60;91.90;;;;;;5048237;28;20051;-78
2022/07/20 08:33:52;;;;;;;30.17;21.77;;;25.70;92.20;;;;;;5044521;28;20417;-77
2022/07/20 08:36:21;;;;;;;29.73;22.02;;;25.90;91.80;;;;;;5036936;28;20049;-78
2022/07/20 08:38:47;;;;;;;28.00;21.63;;;26.00;91.70;;;;;;5053027;28;20405;-77
2022/07/20 08:41:14;;;;;;;30.48;22.92;;;26.20;91.80;;;;;;5051228;28;20108;-78
2022/07/20 08:43:40;;;;;;;34.65;22.60;;;26.50;91.30;;;;;;5054055;28;20080;-78
2022/07/20 08:46:06;;;;;;;30.77;23.63;;;26.60;90.80;;;;;;5040624;28;20061;-78
2022/07/20 08:48:34;;;;;;;30.65;23.15;;;26.70;90.50;;;;;;5040482;28;20033;-76
2022/07/20 08:51:00;;;;;;;33.28;23.67;;;26.90;89.60;;;;;;5034529;28;20468;-79
2022/07/20 08:53:26;;;;;;;34.42;23.42;;;27.20;89.20;;;;;;5032524;28;20055;-76
2022/07/20 08:55:52;;;;;;;31.98;23.90;;;27.30;86.00;;;;;;5036909;28;20127;-79
2022/07/20 08:58:19;;;;;;;29.40;24.33;;;27.40;85.60;;;;;;5052580;28;20091;-78
2022/07/20 09:00:45;;;;;;;31.88;24.27;;;27.50;83.40;;;;;;5034046;28;20681;-78
2022/07/20 09:03:11;;;;;;;31.48;25.40;;;27.60;83.30;;;;;;5041129;28;20045;-79
2022/07/20 09:05:39;;;;;;;27.65;24.30;;;27.70;82.80;;;;;;5048357;28;20075;-78
2022/07/20 09:08:09;;;;;;;27.75;23.65;;;27.80;81.60;;;;;;5057247;28;20044;-75
2022/07/20 09:10:41;;;;;;;27.17;23.30;;;27.90;80.00;;;;;;5040314;28;20041;-76
2022/07/20 09:13:17;;;;;;;28.15;22.85;;;28.00;78.80;;;;;;5034360;28;20044;-74
2022/07/20 09:15:53;;;;;;;26.58;22.00;;;28.10;78.20;;;;;;5041151;28;20530;-75
2022/07/20 09:18:27;;;;;;;26.77;22.27;;;28.20;78.40;;;;;;5046447;28;20572;-75
2022/07/20 09:21:01;;;;;;;28.05;22.60;;;28.30;77.70;;;;;;5042091;28;20159;-74
2022/07/20 09:23:33;;;;;;;26.85;21.73;;;28.40;77.10;;;;;;5035880;28;20041;-75
2022/07/20 09:26:01;;;;;;;25.05;20.70;;;28.40;75.20;;;;;;5035029;28;20049;-75
2022/07/20 09:28:42;;;;;;;24.48;20.42;;;28.50;74.60;;;;;;5017851;28;20040;-75
2022/07/20 09:31:13;;;;;;;25.05;19.73;;;28.60;73.80;;;;;;5036963;28;20045;-75
2022/07/20 09:33:46;;;;;;;26.00;20.20;;;28.60;73.30;;;;;;5044731;28;20409;-75
2022/07/20 09:36:12;;;;;;;23.55;19.10;;;28.60;73.20;;;;;;5047241;28;20547;-75
2022/07/20 09:38:41;;;;;;;24.83;18.67;;;28.70;73.10;;;;;;5037411;28;20398;-75
2022/07/20 09:41:29;;;;;;;24.15;18.80;;;28.70;72.50;;;;;;5056080;28;20075;-75
2022/07/20 09:43:57;;;;;;;24.77;18.27;;;28.70;72.40;;;;;;5032939;28;20037;-75
2022/07/20 09:46:25;;;;;;;22.33;17.67;;;28.80;73.50;;;;;;5027956;28;20047;-75
2022/07/20 09:48:57;;;;;;;19.50;15.13;;;29.00;73.70;;;;;;5029767;28;20068;-75
2022/07/20 09:51:23;;;;;;;21.95;14.88;;;29.30;72.50;;;;;;5030992;28;20032;-74
2022/07/20 09:54:09;;;;;;;21.75;13.98;;;29.60;71.80;;;;;;5045986;28;20047;-77
2022/07/20 09:56:38;;;;;;;14.50;13.00;;;29.80;69.40;;;;;;5032304;28;20041;-75
2022/07/20 09:59:06;;;;;;;16.15;12.48;;;30.00;68.20;;;;;;5026015;28;20048;-75
2022/07/20 10:01:34;;;;;;;16.00;12.43;;;30.30;66.60;;;;;;5028148;28;20068;-76
2022/07/20 10:04:02;;;;;;;17.33;12.85;;;30.30;65.30;;;;;;5046352;28;20128;-74
2022/07/20 10:06:29;;;;;;;14.77;12.30;;;30.20;63.60;;;;;;5022856;28;20488;-75
2022/07/20 10:08:55;;;;;;;17.75;11.95;;;30.00;64.10;;;;;;5041594;28;20041;-75
2022/07/20 10:11:22;;;;;;;14.80;12.00;;;30.10;64.60;;;;;;5030037;28;20537;-74
2022/07/20 10:13:50;;;;;;;13.98;11.32;;;30.20;64.80;;;;;;5042460;28;20539;-74
2022/07/20 10:16:53;;;;;;;16.42;11.32;;;30.30;64.40;;;;;;5035160;28;20452;-75
2022/07/20 10:19:21;;;;;;;14.05;10.93;;;30.60;62.80;;;;;;4962699;28;20047;-75
2022/07/20 10:21:51;;;;;;;16.77;11.77;;;30.70;62.90;;;;;;5034204;28;20076;-75
2022/07/20 10:24:31;;;;;;;15.15;11.10;;;30.80;61.70;;;;;;5045548;28;20540;-74
2022/07/20 10:27:24;;;;;;;14.10;11.50;;;30.90;60.80;;;;;;5043810;28;20044;-75
2022/07/20 10:29:56;;;;;;;15.70;11.57;;;30.90;59.50;;;;;;5033892;28;20037;-75
2022/07/20 10:32:25;;;;;;;18.73;12.18;;;30.60;60.40;;;;;;5028194;28;20046;-74
2022/07/20 10:34:54;;;;;;;14.18;11.50;;;30.70;60.40;;;;;;5032793;28;20045;-75
2022/07/20 10:37:42;;;;;;;12.32;10.80;;;30.90;60.00;;;;;;5043341;28;20041;-75
2022/07/20 10:40:21;;;;;;;15.50;11.43;;;31.00;59.70;;;;;;5031856;28;20471;-75
2022/07/20 10:42:53;;;;;;;15.63;11.07;;;31.10;59.70;;;;;;5035513;28;20099;-75
2022/07/20 10:45:23;;;;;;;14.55;10.75;;;31.00;59.20;;;;;;5035055;28;20049;-75
2022/07/20 10:47:50;;;;;;;16.10;10.88;;;30.80;59.50;;;;;;5039188;28;20490;-75
2022/07/20 10:50:46;;;;;;;16.98;10.65;;;30.70;59.90;;;;;;5044762;28;20037;-75
2022/07/20 10:53:12;;;;;;;15.00;10.63;;;30.70;59.10;;;;;;5041976;28;20102;-75
2022/07/20 10:55:37;;;;;;;12.88;10.05;;;30.70;59.90;;;;;;5042688;28;20498;-75
2022/07/20 10:58:09;;;;;;;15.45;10.27;;;30.80;59.60;;;;;;5048627;28;20044;-75
2022/07/20 11:00:38;;;;;;;15.55;9.73;;;30.90;58.90;;;;;;5055837;28;20032;-75
2022/07/20 11:03:23;;;;;;;12.02;9.20;;;31.10;58.70;;;;;;5033741;28;20040;-75
2022/07/20 11:06:00;;;;;;;13.38;9.23;;;31.30;57.90;;;;;;5041258;28;20041;-75
2022/07/20 11:08:26;;;;;;;11.43;8.52;;;31.40;57.10;;;;;;5041900;28;20052;-75
2022/07/20 11:10:52;;;;;;;12.20;9.07;;;31.50;57.10;;;;;;5029362;28;20041;-75
2022/07/20 11:13:18;;;;;;;12.32;9.75;;;31.60;57.20;;;;;;5042090;28;20082;-75
2022/07/20 11:15:47;;;;;;;16.90;9.38;;;31.70;57.10;;;;;;5035504;28;20088;-76
2022/07/20 11:18:16;;;;;;;16.45;9.25;;;31.70;57.00;;;;;;5030369;28;20421;-75
2022/07/20 11:20:51;;;;;;;11.93;9.18;;;31.80;56.80;;;;;;5036486;28;20048;-75
2022/07/20 11:23:19;;;;;;;11.90;9.15;;;31.60;56.10;;;;;;5040536;28;20063;-75
2022/07/20 11:25:47;;;;;;;13.07;8.75;;;31.40;56.60;;;;;;5035610;28;20037;-75
2022/07/20 11:28:18;;;;;;;12.90;9.25;;;31.30;57.10;;;;;;5040239;28;20068;-74
2022/07/20 11:30:45;;;;;;;13.38;9.20;;;31.40;57.20;;;;;;5036713;28;20037;-75
2022/07/20 11:33:11;;;;;;;11.48;8.73;;;31.30;56.60;;;;;;5043135;28;20048;-74
2022/07/20 11:35:38;;;;;;;24.40;8.57;;;30.90;56.70;;;;;;5034427;28;20041;-75
2022/07/20 11:38:04;;;;;;;13.02;9.43;;;30.80;57.10;;;;;;5019050;28;20565;-75
2022/07/20 11:40:30;;;;;;;11.65;8.40;;;30.70;57.10;;;;;;5054842;28;20060;-75
2022/07/20 11:43:10;;;;;;;11.07;8.65;;;30.70;57.10;;;;;;5042843;28;20045;-75
2022/07/20 11:45:37;;;;;;;12.23;9.07;;;30.80;57.00;;;;;;5050110;28;20044;-75
2022/07/20 11:48:24;;;;;;;10.32;9.13;;;30.90;56.90;;;;;;5045392;28;20106;-75
2022/07/20 11:50:50;;;;;;;12.05;9.30;;;30.90;55.90;;;;;;5054576;28;20174;-75
2022/07/20 11:53:34;;;;;;;13.27;9.40;;;30.90;56.50;;;;;;5029590;28;20044;-75
2022/07/20 11:56:02;;;;;;;16.05;10.13;;;30.90;56.30;;;;;;5048993;28;20508;-75
2022/07/20 11:58:33;;;;;;;11.98;9.50;;;31.00;56.80;;;;;;5028036;28;20544;-75
2022/07/20 12:01:01;;;;;;;13.57;9.60;;;31.20;56.20;;;;;;5039503;28;20124;-75
2022/07/20 12:03:30;;;;;;;13.25;9.77;;;31.20;55.20;;;;;;5067864;28;20066;-75
2022/07/20 12:06:01;;;;;;;12.52;9.52;;;31.10;55.00;;;;;;5048202;28;20443;-75
2022/07/20 12:08:27;;;;;;;11.43;9.35;;;31.10;55.20;;;;;;5034965;28;20112;-77
2022/07/20 12:10:53;;;;;;;12.10;9.77;;;31.20;55.30;;;;;;5045736;28;20099;-78
2022/07/20 12:13:20;;;;;;;16.95;9.63;;;31.50;55.00;;;;;;5054063;28;20064;-77
2022/07/20 12:15:58;;;;;;;11.02;9.60;;;31.70;54.70;;;;;;5039022;28;20033;-77
2022/07/20 12:18:41;;;;;;;12.40;9.70;;;31.90;53.20;;;;;;5051279;28;20374;-78
2022/07/20 12:21:10;;;;;;;11.40;9.15;;;32.10;53.60;;;;;;5047580;28;20102;-78
2022/07/20 12:23:37;;;;;;;12.00;9.20;;;32.30;53.40;;;;;;5041549;28;20042;-77
2022/07/20 12:26:26;;;;;;;11.15;9.90;;;32.50;53.30;;;;;;5041399;28;20037;-78
2022/07/20 12:28:55;;;;;;;11.02;8.70;;;32.70;53.10;;;;;;5043195;28;20080;-77
2022/07/20 12:31:22;;;;;;;15.05;9.52;;;32.70;52.80;;;;;;5063331;28;20045;-78
2022/07/20 12:34:09;;;;;;;12.48;10.18;;;32.50;52.60;;;;;;5038273;28;20490;-78
2022/07/20 12:36:45;;;;;;;13.25;9.50;;;32.60;53.00;;;;;;5038583;28;20401;-78
2022/07/20 12:39:15;;;;;;;10.75;9.40;;;32.70;52.90;;;;;;5048877;28;20037;-78
2022/07/20 12:41:42;;;;;;;11.47;8.97;;;32.80;52.80;;;;;;5031026;28;20132;-77
2022/07/20 12:44:29;;;;;;;11.23;8.60;;;32.70;52.60;;;;;;5045575;28;20303;-78
2022/07/20 12:46:56;;;;;;;11.27;8.32;;;32.90;52.50;;;;;;5049736;28;20049;-78